sensor_id;sensor_type;location;lat;lon;timestamp;pressure;altitude;pressure_sealevel;temperature;humidity
33280;BME280;20403;43.114;12.434;2022-08-03T00:01:33;99121.19;;;22.02;100.00
33280;BME280;20403;43.114;12.434;2022-08-03T00:03:58;99118.53;;;22.02;100.00
33280;BME280;20403;43.114;12.434;2022-08-03T00:06:24;99119.31;;;22.03;100.00
33280;BME280;20403;43.114;12.434;2022-08-03T00:08:49;99121.75;;;21.99;100.00
33280;BME280;20403;43.114;12.434;2022-08-03T00:11:15;99118.63;;;21.97;100.00
33280;BME280;20403;43.114;12.434;2022-08-03T00:13:40;99123.53;;;22.04;100.00
33280;BME280;20403;43.114;12.434;2022-08-03T00:16:05;99111.06;;;22.05;100.00
33280;BME280;20403;43.114;12.434;2022-08-03T00:18:31;99117.53;;;21.98;100.00
33280;BME280;20403;43.114;12.434;2022-08-03T00:20:56;99113.09;;;22.08;100.00
33280;BME280;20403;43.114;12.434;2022-08-03T00:23:22;99117.94;;;22.06;100.00
33280;BME280;20403;43.114;12.434;2022-08-03T00:25:47;99117.53;;;21.98;100.00
33280;BME280;20403;43.114;12.434;2022-08-03T00:28:13;99115.69;;;21.85;100.00
33280;BME280;20403;43.114;12.434;2022-08-03T00:30:38;99123.16;;;21.83;100.00
33280;BME280;20403;43.114;12.434;2022-08-03T00:33:04;99124.13;;;21.87;100.00
33280;BME280;20403;43.114;12.434;2022-08-03T00:35:30;99111.84;;;21.77;100.00
33280;BME280;20403;43.114;12.434;2022-08-03T00:37:55;99121.28;;;21.70;100.00
33280;BME280;20403;43.114;12.434;2022-08-03T00:40:21;99113.22;;;21.75;100.00
33280;BME280;20403;43.114;12.434;2022-08-03T00:42:50;99118.63;;;21.70;100.00
33280;BME280;20403;43.114;12.434;2022-08-03T00:45:17;99111.63;;;21.74;100.00
33280;BME280;20403;43.114;12.434;2022-08-03T00:47:43;99115.19;;;21.69;100.00
33280;BME280;20403;43.114;12.434;2022-08-03T00:50:09;99117.53;;;21.57;100.00
33280;BME280;20403;43.114;12.434;2022-08-03T00:52:35;99117.16;;;21.50;100.00
33280;BME280;20403;43.114;12.434;2022-08-03T00:55:02;99109.88;;;21.55;100.00
33280;BME280;20403;43.114;12.434;2022-08-03T00:57:29;99112.63;;;21.50;100.00
33280;BME280;20403;43.114;12.434;2022-08-03T00:59:56;99108.53;;;21.39;100.00
33280;BME280;20403;43.114;12.434;2022-08-03T01:02:21;99109.97;;;21.50;100.00
33280;BME280;20403;43.114;12.434;2022-08-03T01:04:46;99115.09;;;21.47;100.00
33280;BME280;20403;43.114;12.434;2022-08-03T01:10:12;99118.66;;;21.37;100.00
33280;BME280;20403;43.114;12.434;2022-08-03T01:12:58;99111.78;;;21.36;100.00
33280;BME280;20403;43.114;12.434;2022-08-03T01:20:33;99106.81;;;21.48;100.00
33280;BME280;20403;43.114;12.434;2022-08-03T01:23:13;99108.69;;;21.48;100.00
33280;BME280;20403;43.114;12.434;2022-08-03T01:31:21;99100.81;;;21.43;100.00
33280;BME280;20403;43.114;12.434;2022-08-03T01:33:59;99107.31;;;21.50;100.00
33280;BME280;20403;43.114;12.434;2022-08-03T01:36:29;99094.25;;;21.40;100.00
33280;BME280;20403;43.114;12.434;2022-08-03T01:38:57;99101.97;;;21.36;100.00
33280;BME280;20403;43.114;12.434;2022-08-03T01:41:30;99103.72;;;21.27;100.00
33280;BME280;20403;43.114;12.434;2022-08-03T01:43:58;99094.25;;;21.21;100.00
33280;BME280;20403;43.114;12.434;2022-08-03T01:46:26;99095.34;;;21.20;100.00
33280;BME280;20403;43.114;12.434;2022-08-03T01:48:53;99099.09;;;21.19;100.00
33280;BME280;20403;43.114;12.434;2022-08-03T01:51:21;99096.63;;;21.23;100.00
33280;BME280;20403;43.114;12.434;2022-08-03T01:53:48;99090.91;;;21.15;100.00
33280;BME280;20403;43.114;12.434;2022-08-03T01:56:23;99096.44;;;21.19;100.00
33280;BME280;20403;43.114;12.434;2022-08-03T01:58:51;99096.03;;;21.26;100.00
33280;BME280;20403;43.114;12.434;2022-08-03T02:01:19;99092.78;;;21.15;100.00
33280;BME280;20403;43.114;12.434;2022-08-03T02:03:46;99097.78;;;21.16;100.00
33280;BME280;20403;43.114;12.434;2022-08-03T02:06:14;99092.66;;;21.06;100.00
33280;BME280;20403;43.114;12.434;2022-08-03T02:08:43;99093.16;;;21.08;100.00
33280;BME280;20403;43.114;12.434;2022-08-03T02:11:09;99097.19;;;21.06;100.00
33280;BME280;20403;43.114;12.434;2022-08-03T02:13:37;99088.22;;;21.02;100.00
33280;BME280;20403;43.114;12.434;2022-08-03T02:16:03;99088.03;;;20.98;100.00
33280;BME280;20403;43.114;12.434;2022-08-03T02:18:30;99085.31;;;21.03;100.00
33280;BME280;20403;43.114;12.434;2022-08-03T02:20:59;99086.56;;;21.06;100.00
33280;BME280;20403;43.114;12.434;2022-08-03T02:23:25;99083.63;;;20.93;100.00
33280;BME280;20403;43.114;12.434;2022-08-03T02:25:57;99088.28;;;20.83;100.00
33280;BME280;20403;43.114;12.434;2022-08-03T02:28:31;99084.91;;;20.77;100.00
33280;BME280;20403;43.114;12.434;2022-08-03T02:31:02;99081.28;;;20.73;100.00
33280;BME280;20403;43.114;12.434;2022-08-03T02:33:41;99080.69;;;20.76;100.00
33280;BME280;20403;43.114;12.434;2022-08-03T02:36:08;99074.44;;;20.86;100.00
33280;BME280;20403;43.114;12.434;2022-08-03T02:38:38;99075.13;;;20.77;100.00
33280;BME280;20403;43.114;12.434;2022-08-03T02:41:08;99083.56;;;20.80;100.00
33280;BME280;20403;43.114;12.434;2022-08-03T02:43:39;99081.56;;;20.71;100.00
33280;BME280;20403;43.114;12.434;2022-08-03T02:46:06;99082.16;;;20.68;100.00
33280;BME280;20403;43.114;12.434;2022-08-03T02:48:36;99080.97;;;20.74;100.00
33280;BME280;20403;43.114;12.434;2022-08-03T02:51:02;99078.91;;;20.71;100.00
33280;BME280;20403;43.114;12.434;2022-08-03T02:53:29;99062.50;;;20.69;100.00
33280;BME280;20403;43.114;12.434;2022-08-03T02:55:56;99076.44;;;20.61;100.00
33280;BME280;20403;43.114;12.434;2022-08-03T02:58:23;99080.47;;;20.53;100.00
33280;BME280;20403;43.114;12.434;2022-08-03T03:00:50;99078.00;;;20.62;100.00
33280;BME280;20403;43.114;12.434;2022-08-03T03:03:18;99074.88;;;20.74;100.00
33280;BME280;20403;43.114;12.434;2022-08-03T03:05:45;99075.97;;;20.73;100.00
33280;BME280;20403;43.114;12.434;2022-08-03T03:08:16;99079.78;;;20.67;100.00
33280;BME280;20403;43.114;12.434;2022-08-03T03:10:43;99074.84;;;20.60;100.00
33280;BME280;20403;43.114;12.434;2022-08-03T03:13:09;99075.94;;;20.54;100.00
33280;BME280;20403;43.114;12.434;2022-08-03T03:15:37;99087.50;;;20.63;100.00
33280;BME280;20403;43.114;12.434;2022-08-03T03:18:04;99074.84;;;20.60;100.00
33280;BME280;20403;43.114;12.434;2022-08-03T03:20:32;99080.19;;;20.55;100.00
33280;BME280;20403;43.114;12.434;2022-08-03T03:23:00;99085.06;;;20.48;100.00
33280;BME280;20403;43.114;12.434;2022-08-03T03:25:30;99087.13;;;20.51;100.00
33280;BME280;20403;43.114;12.434;2022-08-03T03:27:57;99083.19;;;20.48;100.00
33280;BME280;20403;43.114;12.434;2022-08-03T03:30:24;99076.63;;;20.46;100.00
33280;BME280;20403;43.114;12.434;2022-08-03T03:32:50;99081.31;;;20.49;100.00
33280;BME280;20403;43.114;12.434;2022-08-03T03:35:15;99089.50;;;20.52;100.00
33280;BME280;20403;43.114;12.434;2022-08-03T03:37:41;99083.38;;;20.57;100.00
33280;BME280;20403;43.114;12.434;2022-08-03T03:40:07;99087.72;;;20.48;100.00
33280;BME280;20403;43.114;12.434;2022-08-03T03:42:33;99082.34;;;20.34;100.00
33280;BME280;20403;43.114;12.434;2022-08-03T03:45:06;99078.75;;;20.44;100.00
33280;BME280;20403;43.114;12.434;2022-08-03T03:47:33;99078.75;;;20.44;100.00
33280;BME280;20403;43.114;12.434;2022-08-03T03:49:59;99081.06;;;20.31;100.00
33280;BME280;20403;43.114;12.434;2022-08-03T03:52:25;99080.84;;;20.28;100.00
33280;BME280;20403;43.114;12.434;2022-08-03T03:54:51;99083.81;;;20.21;100.00
33280;BME280;20403;43.114;12.434;2022-08-03T03:57:16;99093.50;;;20.31;100.00
33280;BME280;20403;43.114;12.434;2022-08-03T03:59:42;99090.28;;;20.34;100.00
33280;BME280;20403;43.114;12.434;2022-08-03T04:02:08;99090.22;;;20.39;100.00
33280;BME280;20403;43.114;12.434;2022-08-03T04:04:35;99092.09;;;20.39;100.00
33280;BME280;20403;43.114;12.434;2022-08-03T04:07:20;99093.13;;;20.38;100.00
33280;BME280;20403;43.114;12.434;2022-08-03T04:10:14;99094.31;;;20.31;100.00
33280;BME280;20403;43.114;12.434;2022-08-03T04:13:02;99103.47;;;20.39;100.00
33280;BME280;20403;43.114;12.434;2022-08-03T04:15:30;99099.09;;;20.29;100.00
33280;BME280;20403;43.114;12.434;2022-08-03T04:17:58;99103.88;;;20.27;100.00
33280;BME280;20403;43.114;12.434;2022-08-03T04:20:27;99108.25;;;20.37;100.00
33280;BME280;20403;43.114;12.434;2022-08-03T04:22:55;99106.09;;;20.39;100.00
33280;BME280;20403;43.114;12.434;2022-08-03T04:25:32;99114.56;;;20.41;100.00
33280;BME280;20403;43.114;12.434;2022-08-03T04:28:03;99117.41;;;20.45;100.00
33280;BME280;20403;43.114;12.434;2022-08-03T04:30:30;99112.69;;;20.42;100.00
33280;BME280;20403;43.114;12.434;2022-08-03T04:32:57;99119.69;;;20.51;100.00
33280;BME280;20403;43.114;12.434;2022-08-03T04:35:24;99112.91;;;20.45;100.00
33280;BME280;20403;43.114;12.434;2022-08-03T04:37:54;99110.38;;;20.59;100.00
33280;BME280;20403;43.114;12.434;2022-08-03T04:40:31;99115.88;;;20.63;100.00
33280;BME280;20403;43.114;12.434;2022-08-03T04:42:57;99122.94;;;20.67;100.00
33280;BME280;20403;43.114;12.434;2022-08-03T04:45:26;99120.38;;;20.62;100.00
33280;BME280;20403;43.114;12.434;2022-08-03T04:47:52;99131.63;;;20.73;100.00
33280;BME280;20403;43.114;12.434;2022-08-03T04:50:18;99126.94;;;20.84;100.00
33280;BME280;20403;43.114;12.434;2022-08-03T04:52:44;99127.53;;;20.81;100.00
33280;BME280;20403;43.114;12.434;2022-08-03T04:55:09;99131.69;;;20.87;100.00
33280;BME280;20403;43.114;12.434;2022-08-03T04:57:35;99130.94;;;21.00;100.00
33280;BME280;20403;43.114;12.434;2022-08-03T05:00:00;99137.09;;;20.95;100.00
33280;BME280;20403;43.114;12.434;2022-08-03T05:02:26;99140.66;;;21.05;100.00
33280;BME280;20403;43.114;12.434;2022-08-03T05:04:51;99140.81;;;21.13;100.00
33280;BME280;20403;43.114;12.434;2022-08-03T05:07:17;99142.91;;;21.30;100.00
33280;BME280;20403;43.114;12.434;2022-08-03T05:09:43;99139.84;;;21.42;100.00
33280;BME280;20403;43.114;12.434;2022-08-03T05:12:09;99149.41;;;21.38;100.00
33280;BME280;20403;43.114;12.434;2022-08-03T05:14:36;99149.66;;;21.55;100.00
33280;BME280;20403;43.114;12.434;2022-08-03T05:17:06;99152.16;;;21.66;100.00
33280;BME280;20403;43.114;12.434;2022-08-03T05:19:32;99151.06;;;21.67;100.00
33280;BME280;20403;43.114;12.434;2022-08-03T05:21:57;99153.81;;;21.75;100.00
33280;BME280;20403;43.114;12.434;2022-08-03T05:24:23;99154.22;;;21.82;100.00
33280;BME280;20403;43.114;12.434;2022-08-03T05:26:48;99154.63;;;21.90;100.00
33280;BME280;20403;43.114;12.434;2022-08-03T05:29:14;99148.91;;;22.10;100.00
33280;BME280;20403;43.114;12.434;2022-08-03T05:31:39;99155.00;;;22.24;100.00
33280;BME280;20403;43.114;12.434;2022-08-03T05:34:05;99149.47;;;22.49;100.00
33280;BME280;20403;43.114;12.434;2022-08-03T05:36:30;99148.16;;;22.60;100.00
33280;BME280;20403;43.114;12.434;2022-08-03T05:38:55;99143.38;;;22.71;100.00
33280;BME280;20403;43.114;12.434;2022-08-03T05:41:21;99143.47;;;22.79;100.00
33280;BME280;20403;43.114;12.434;2022-08-03T05:43:46;99141.84;;;22.92;100.00
33280;BME280;20403;43.114;12.434;2022-08-03T05:46:12;99137.41;;;23.01;100.00
33280;BME280;20403;43.114;12.434;2022-08-03T05:48:37;99138.06;;;23.07;100.00
33280;BME280;20403;43.114;12.434;2022-08-03T05:51:03;99133.56;;;23.16;100.00
33280;BME280;20403;43.114;12.434;2022-08-03T05:53:33;99136.06;;;23.44;100.00
33280;BME280;20403;43.114;12.434;2022-08-03T05:55:59;99138.59;;;23.49;100.00
33280;BME280;20403;43.114;12.434;2022-08-03T05:58:24;99135.06;;;23.62;100.00
33280;BME280;20403;43.114;12.434;2022-08-03T06:00:50;99137.09;;;23.65;100.00
33280;BME280;20403;43.114;12.434;2022-08-03T06:03:15;99138.91;;;23.79;100.00
33280;BME280;20403;43.114;12.434;2022-08-03T06:05:40;99141.16;;;23.94;100.00
33280;BME280;20403;43.114;12.434;2022-08-03T06:08:06;99133.16;;;24.03;100.00
33280;BME280;20403;43.114;12.434;2022-08-03T06:10:32;99136.81;;;24.16;100.00
33280;BME280;20403;43.114;12.434;2022-08-03T06:12:57;99136.06;;;24.32;100.00
33280;BME280;20403;43.114;12.434;2022-08-03T06:15:23;99144.06;;;24.41;100.00
33280;BME280;20403;43.114;12.434;2022-08-03T06:17:49;99140.97;;;24.57;100.00
33280;BME280;20403;43.114;12.434;2022-08-03T06:20:19;99137.03;;;24.63;100.00
33280;BME280;20403;43.114;12.434;2022-08-03T06:22:45;99135.78;;;24.86;100.00
33280;BME280;20403;43.114;12.434;2022-08-03T06:25:11;99132.31;;;24.94;100.00
33280;BME280;20403;43.114;12.434;2022-08-03T06:27:37;99135.13;;;25.07;100.00
33280;BME280;20403;43.114;12.434;2022-08-03T06:30:05;99141.09;;;25.21;100.00
33280;BME280;20403;43.114;12.434;2022-08-03T06:32:31;99139.97;;;25.40;100.00
33280;BME280;20403;43.114;12.434;2022-08-03T06:34:58;99143.66;;;25.56;100.00
33280;BME280;20403;43.114;12.434;2022-08-03T06:37:23;99141.69;;;25.74;100.00
33280;BME280;20403;43.114;12.434;2022-08-03T06:39:53;99140.72;;;25.87;100.00
33280;BME280;20403;43.114;12.434;2022-08-03T06:42:18;99142.66;;;26.08;100.00
33280;BME280;20403;43.114;12.434;2022-08-03T06:44:54;99144.00;;;26.23;100.00
33280;BME280;20403;43.114;12.434;2022-08-03T06:47:19;99145.41;;;26.41;100.00
33280;BME280;20403;43.114;12.434;2022-08-03T06:49:44;99145.19;;;26.55;100.00
33280;BME280;20403;43.114;12.434;2022-08-03T06:52:10;99153.31;;;26.79;100.00
33280;BME280;20403;43.114;12.434;2022-08-03T06:54:35;99149.47;;;26.89;100.00
33280;BME280;20403;43.114;12.434;2022-08-03T06:57:01;99143.94;;;27.07;100.00
33280;BME280;20403;43.114;12.434;2022-08-03T06:59:26;99142.91;;;27.20;100.00
33280;BME280;20403;43.114;12.434;2022-08-03T07:01:51;99143.47;;;27.26;100.00
33280;BME280;20403;43.114;12.434;2022-08-03T07:04:17;99143.59;;;27.41;100.00
33280;BME280;20403;43.114;12.434;2022-08-03T07:06:42;99145.19;;;27.55;100.00
33280;BME280;20403;43.114;12.434;2022-08-03T07:09:08;99144.97;;;27.60;96.20
33280;BME280;20403;43.114;12.434;2022-08-03T07:11:33;99149.88;;;27.70;99.68
33280;BME280;20403;43.114;12.434;2022-08-03T07:13:58;99152.13;;;27.93;100.00
33280;BME280;20403;43.114;12.434;2022-08-03T07:16:24;99149.34;;;28.01;89.25
33280;BME280;20403;43.114;12.434;2022-08-03T07:18:49;99148.31;;;28.18;98.00
33280;BME280;20403;43.114;12.434;2022-08-03T07:21:15;99141.38;;;28.29;78.79
33280;BME280;20403;43.114;12.434;2022-08-03T07:23:41;99148.28;;;28.43;82.46
33280;BME280;20403;43.114;12.434;2022-08-03T07:26:06;99141.97;;;28.63;81.50
33280;BME280;20403;43.114;12.434;2022-08-03T07:28:32;99142.38;;;28.78;80.37
33280;BME280;20403;43.114;12.434;2022-08-03T07:30:57;99143.88;;;28.91;77.68
33280;BME280;20403;43.114;12.434;2022-08-03T07:33:23;99145.59;;;29.11;73.36
33280;BME280;20403;43.114;12.434;2022-08-03T07:35:49;99146.38;;;29.28;69.66
33280;BME280;20403;43.114;12.434;2022-08-03T07:38:14;99137.09;;;29.41;66.21
33280;BME280;20403;43.114;12.434;2022-08-03T07:40:40;99140.94;;;29.56;65.98
33280;BME280;20403;43.114;12.434;2022-08-03T07:43:05;99143.97;;;29.70;69.84
33280;BME280;20403;43.114;12.434;2022-08-03T07:45:31;99146.31;;;29.88;65.79
33280;BME280;20403;43.114;12.434;2022-08-03T07:47:56;99138.13;;;30.00;62.46
33280;BME280;20403;43.114;12.434;2022-08-03T07:50:22;99139.72;;;30.21;60.92
33280;BME280;20403;43.114;12.434;2022-08-03T07:52:48;99139.28;;;30.19;56.42
33280;BME280;20403;43.114;12.434;2022-08-03T07:55:18;99137.50;;;30.07;58.93
33280;BME280;20403;43.114;12.434;2022-08-03T07:57:44;99141.53;;;30.32;61.07
33280;BME280;20403;43.114;12.434;2022-08-03T08:00:16;99130.47;;;30.57;56.91
33280;BME280;20403;43.114;12.434;2022-08-03T08:02:42;99138.47;;;30.73;56.40
33280;BME280;20403;43.114;12.434;2022-08-03T08:05:08;99138.25;;;30.82;53.83
33280;BME280;20403;43.114;12.434;2022-08-03T08:07:35;99141.06;;;30.85;53.02
33280;BME280;20403;43.114;12.434;2022-08-03T08:10:06;99135.31;;;30.87;50.83
33280;BME280;20403;43.114;12.434;2022-08-03T08:12:32;99139.41;;;31.00;52.53
33280;BME280;20403;43.114;12.434;2022-08-03T08:14:58;99133.28;;;31.03;50.26
33280;BME280;20403;43.114;12.434;2022-08-03T08:17:23;99134.13;;;31.30;51.47
33280;BME280;20403;43.114;12.434;2022-08-03T08:19:48;99133.56;;;31.40;48.06
33280;BME280;20403;43.114;12.434;2022-08-03T08:22:14;99125.34;;;31.56;50.29
33280;BME280;20403;43.114;12.434;2022-08-03T08:24:39;99127.22;;;31.79;46.66
33280;BME280;20403;43.114;12.434;2022-08-03T08:27:05;99128.56;;;31.92;45.31
33280;BME280;20403;43.114;12.434;2022-08-03T08:29:32;99124.09;;;31.77;46.15
33280;BME280;20403;43.114;12.434;2022-08-03T08:31:59;99114.78;;;31.71;46.07
33280;BME280;20403;43.114;12.434;2022-08-03T08:34:24;99132.44;;;31.95;45.11
33280;BME280;20403;43.114;12.434;2022-08-03T08:36:49;99133.84;;;32.12;45.22
33280;BME280;20403;43.114;12.434;2022-08-03T08:39:15;99121.91;;;32.43;45.49
33280;BME280;20403;43.114;12.434;2022-08-03T08:41:40;99127.16;;;32.59;42.78
33280;BME280;20403;43.114;12.434;2022-08-03T08:44:07;99124.97;;;32.72;41.96
33280;BME280;20403;43.114;12.434;2022-08-03T08:46:34;99132.34;;;32.78;41.17
33280;BME280;20403;43.114;12.434;2022-08-03T08:49:02;99130.47;;;32.82;40.96
33280;BME280;20403;43.114;12.434;2022-08-03T08:51:29;99126.44;;;33.03;41.57
33280;BME280;20403;43.114;12.434;2022-08-03T08:53:56;99125.16;;;33.31;40.55
33280;BME280;20403;43.114;12.434;2022-08-03T08:56:26;99128.94;;;33.22;39.46
33280;BME280;20403;43.114;12.434;2022-08-03T08:58:57;99126.69;;;33.32;39.01
33280;BME280;20403;43.114;12.434;2022-08-03T09:01:22;99130.56;;;33.31;39.34
33280;BME280;20403;43.114;12.434;2022-08-03T09:03:48;99127.31;;;33.59;39.08
33280;BME280;20403;43.114;12.434;2022-08-03T09:06:14;99146.34;;;33.73;37.30
33280;BME280;20403;43.114;12.434;2022-08-03T09:08:40;99131.75;;;33.85;38.11
33280;BME280;20403;43.114;12.434;2022-08-03T09:11:06;99133.28;;;33.82;37.47
33280;BME280;20403;43.114;12.434;2022-08-03T09:13:34;99128.69;;;33.94;35.53
33280;BME280;20403;43.114;12.434;2022-08-03T09:16:13;99129.91;;;34.00;36.55
33280;BME280;20403;43.114;12.434;2022-08-03T09:18:41;99132.88;;;33.80;37.17
33280;BME280;20403;43.114;12.434;2022-08-03T09:21:16;99124.22;;;34.16;36.91
33280;BME280;20403;43.114;12.434;2022-08-03T09:23:48;99120.78;;;34.29;35.63
33280;BME280;20403;43.114;12.434;2022-08-03T09:26:24;99120.84;;;34.47;36.32
33280;BME280;20403;43.114;12.434;2022-08-03T09:29:09;99119.69;;;34.41;35.33
33280;BME280;20403;43.114;12.434;2022-08-03T09:31:40;99118.53;;;34.57;35.37
33280;BME280;20403;43.114;12.434;2022-08-03T09:34:07;99112.06;;;34.76;34.84
33280;BME280;20403;43.114;12.434;2022-08-03T09:36:43;99124.06;;;34.92;35.22
33280;BME280;20403;43.114;12.434;2022-08-03T09:39:10;99120.19;;;35.01;34.09
33280;BME280;20403;43.114;12.434;2022-08-03T09:41:40;99108.63;;;35.18;34.24
33280;BME280;20403;43.114;12.434;2022-08-03T09:44:06;99110.56;;;35.32;32.89
33280;BME280;20403;43.114;12.434;2022-08-03T09:46:49;99113.28;;;35.39;34.10
33280;BME280;20403;43.114;12.434;2022-08-03T09:49:15;99111.31;;;35.40;34.09
33280;BME280;20403;43.114;12.434;2022-08-03T09:51:41;99111.31;;;35.58;33.37
33280;BME280;20403;43.114;12.434;2022-08-03T09:54:06;99102.03;;;35.66;32.85
33280;BME280;20403;43.114;12.434;2022-08-03T09:59:03;99102.00;;;35.80;33.08
33280;BME280;20403;43.114;12.434;2022-08-03T10:01:33;99103.16;;;35.83;33.07
33280;BME280;20403;43.114;12.434;2022-08-03T10:04:02;99093.00;;;36.01;32.46
33280;BME280;20403;43.114;12.434;2022-08-03T10:06:27;99097.66;;;36.08;31.45
33280;BME280;20403;43.114;12.434;2022-08-03T10:09:10;99100.78;;;35.88;32.35
33280;BME280;20403;43.114;12.434;2022-08-03T10:11:37;99091.09;;;35.98;31.50
33280;BME280;20403;43.114;12.434;2022-08-03T10:14:07;99096.47;;;36.09;31.57
33280;BME280;20403;43.114;12.434;2022-08-03T10:16:34;99099.56;;;36.22;31.69
33280;BME280;20403;43.114;12.434;2022-08-03T10:19:05;99092.91;;;36.33;31.76
33280;BME280;20403;43.114;12.434;2022-08-03T10:21:34;99091.78;;;36.20;31.14
33280;BME280;20403;43.114;12.434;2022-08-03T10:24:05;99094.84;;;36.29;31.43
33280;BME280;20403;43.114;12.434;2022-08-03T10:26:39;99093.19;;;36.53;30.80
33280;BME280;20403;43.114;12.434;2022-08-03T10:29:11;99086.84;;;36.78;29.55
33280;BME280;20403;43.114;12.434;2022-08-03T10:31:38;99086.13;;;36.67;30.03
33280;BME280;20403;43.114;12.434;2022-08-03T10:34:10;99082.31;;;36.61;29.60
33280;BME280;20403;43.114;12.434;2022-08-03T10:36:38;99086.41;;;36.06;28.54
33280;BME280;20403;43.114;12.434;2022-08-03T10:39:05;99082.50;;;36.17;30.61
33280;BME280;20403;43.114;12.434;2022-08-03T10:41:34;99074.19;;;36.53;30.05
33280;BME280;20403;43.114;12.434;2022-08-03T10:44:13;99069.06;;;36.66;29.39
33280;BME280;20403;43.114;12.434;2022-08-03T10:46:42;99064.75;;;36.72;29.54
33280;BME280;20403;43.114;12.434;2022-08-03T10:49:13;99069.75;;;36.77;29.39
33280;BME280;20403;43.114;12.434;2022-08-03T10:51:40;99063.38;;;36.98;27.97
33280;BME280;20403;43.114;12.434;2022-08-03T10:54:06;99062.53;;;37.12;29.24
33280;BME280;20403;43.114;12.434;2022-08-03T11:02:19;99052.06;;;37.49;28.12
33280;BME280;20403;43.114;12.434;2022-08-03T11:04:45;99046.75;;;37.76;27.98
33280;BME280;20403;43.114;12.434;2022-08-03T11:07:24;99049.72;;;37.51;27.80
33280;BME280;20403;43.114;12.434;2022-08-03T11:09:54;99041.69;;;37.36;27.98
33280;BME280;20403;43.114;12.434;2022-08-03T11:12:30;99048.34;;;37.32;27.69
33280;BME280;20403;43.114;12.434;2022-08-03T11:14:58;99040.00;;;37.50;27.24
33280;BME280;20403;43.114;12.434;2022-08-03T11:17:24;99037.94;;;37.65;27.91
33280;BME280;20403;43.114;12.434;2022-08-03T11:19:51;99036.00;;;37.96;27.63
33280;BME280;20403;43.114;12.434;2022-08-03T11:22:18;99033.53;;;38.09;27.06
33280;BME280;20403;43.114;12.434;2022-08-03T11:35:23;99026.22;;;37.68;28.14
33280;BME280;20403;43.114;12.434;2022-08-03T11:40:46;99012.69;;;37.95;27.07
33280;BME280;20403;43.114;12.434;2022-08-03T11:46:02;99012.94;;;38.35;27.54
33280;BME280;20403;43.114;12.434;2022-08-03T11:48:36;99015.81;;;38.51;27.08
33280;BME280;20403;43.114;12.434;2022-08-03T11:51:03;99011.19;;;38.48;27.40
33280;BME280;20403;43.114;12.434;2022-08-03T11:53:29;99017.91;;;38.67;28.12
33280;BME280;20403;43.114;12.434;2022-08-03T11:55:58;99009.97;;;38.76;26.39
33280;BME280;20403;43.114;12.434;2022-08-03T11:58:24;99008.09;;;38.97;26.10
33280;BME280;20403;43.114;12.434;2022-08-03T12:00:49;99004.84;;;39.05;25.90
33280;BME280;20403;43.114;12.434;2022-08-03T12:03:17;98996.25;;;39.27;25.31
33280;BME280;20403;43.114;12.434;2022-08-03T12:08:12;98997.75;;;38.84;26.22
33280;BME280;20403;43.114;12.434;2022-08-03T12:10:39;98998.66;;;39.01;25.95
33280;BME280;20403;43.114;12.434;2022-08-03T12:13:06;98988.88;;;39.04;26.55
33280;BME280;20403;43.114;12.434;2022-08-03T12:15:36;98996.34;;;39.00;26.83
33280;BME280;20403;43.114;12.434;2022-08-03T12:18:12;98997.88;;;38.54;26.69
33280;BME280;20403;43.114;12.434;2022-08-03T12:20:39;98997.16;;;37.61;27.24
33280;BME280;20403;43.114;12.434;2022-08-03T12:23:05;98987.84;;;37.89;27.94
33280;BME280;20403;43.114;12.434;2022-08-03T12:25:33;98989.06;;;38.42;26.87
33280;BME280;20403;43.114;12.434;2022-08-03T12:30:33;98990.56;;;39.18;25.91
33280;BME280;20403;43.114;12.434;2022-08-03T12:32:58;98987.75;;;39.01;26.44
33280;BME280;20403;43.114;12.434;2022-08-03T12:35:35;98992.84;;;38.99;26.67
33280;BME280;20403;43.114;12.434;2022-08-03T12:38:00;98987.63;;;39.08;26.70
33280;BME280;20403;43.114;12.434;2022-08-03T12:40:27;98985.84;;;38.75;26.83
33280;BME280;20403;43.114;12.434;2022-08-03T12:42:52;98987.47;;;37.56;26.53
33280;BME280;20403;43.114;12.434;2022-08-03T12:45:27;98980.91;;;37.50;26.99
33280;BME280;20403;43.114;12.434;2022-08-03T12:47:55;98970.59;;;37.69;27.84
33280;BME280;20403;43.114;12.434;2022-08-03T12:50:38;98971.78;;;37.71;27.26
33280;BME280;20403;43.114;12.434;2022-08-03T12:53:07;98969.78;;;38.06;27.46
33280;BME280;20403;43.114;12.434;2022-08-03T12:55:34;98974.63;;;38.45;25.89
33280;BME280;20403;43.114;12.434;2022-08-03T12:58:03;98964.03;;;38.75;25.46
33280;BME280;20403;43.114;12.434;2022-08-03T13:00:29;98963.09;;;38.85;25.69
33280;BME280;20403;43.114;12.434;2022-08-03T13:03:04;98962.09;;;38.75;26.03
33280;BME280;20403;43.114;12.434;2022-08-03T13:05:31;98957.91;;;38.71;25.27
33280;BME280;20403;43.114;12.434;2022-08-03T13:08:17;98965.47;;;38.59;25.09
33280;BME280;20403;43.114;12.434;2022-08-03T13:10:42;98960.22;;;38.45;25.17
33280;BME280;20403;43.114;12.434;2022-08-03T13:13:08;98955.59;;;38.42;25.07
33280;BME280;20403;43.114;12.434;2022-08-03T13:15:34;98953.63;;;38.19;25.19
33280;BME280;20403;43.114;12.434;2022-08-03T13:18:00;98958.34;;;37.88;25.27
33280;BME280;20403;43.114;12.434;2022-08-03T13:20:25;98952.47;;;37.89;25.85
33280;BME280;20403;43.114;12.434;2022-08-03T13:22:51;98947.19;;;37.44;25.93
33280;BME280;20403;43.114;12.434;2022-08-03T13:25:16;98945.28;;;37.03;26.71
33280;BME280;20403;43.114;12.434;2022-08-03T13:27:42;98946.53;;;37.33;26.65
33280;BME280;20403;43.114;12.434;2022-08-03T13:30:08;98939.31;;;37.53;26.39
33280;BME280;20403;43.114;12.434;2022-08-03T13:32:34;98930.69;;;37.62;25.90